sensor_id;sensor_type;location;lat;lon;timestamp;pressure;altitude;pressure_sealevel;temperature;humidity
39105;BME280;46464;51.154;13.812;2023-04-27T00:00:59;52519.50;;;-146.96;73.71
39105;BME280;46464;51.154;13.812;2023-04-27T00:03:25;52511.34;;;-146.96;73.75
39105;BME280;46464;51.154;13.812;2023-04-27T00:05:52;52517.47;;;-146.96;74.28
39105;BME280;46464;51.154;13.812;2023-04-27T00:08:19;52533.75;;;-146.96;74.41
39105;BME280;46464;51.154;13.812;2023-04-27T00:10:45;52521.53;;;-146.96;74.32
39105;BME280;46464;51.154;13.812;2023-04-27T00:13:12;52497.13;;;-146.96;75.19
39105;BME280;46464;51.154;13.812;2023-04-27T00:15:38;52525.59;;;-146.96;74.90
39105;BME280;46464;51.154;13.812;2023-04-27T00:18:06;52523.56;;;-146.96;74.97
39105;BME280;46464;51.154;13.812;2023-04-27T00:20:32;52529.66;;;-146.96;75.00
39105;BME280;46464;51.154;13.812;2023-04-27T00:22:59;52550.03;;;-146.96;75.15
39105;BME280;46464;51.154;13.812;2023-04-27T00:25:25;52537.81;;;-146.96;75.19
39105;BME280;46464;51.154;13.812;2023-04-27T00:27:52;52521.53;;;-146.96;74.98
39105;BME280;46464;51.154;13.812;2023-04-27T00:30:18;52523.56;;;-146.96;75.22
39105;BME280;46464;51.154;13.812;2023-04-27T00:32:45;52482.88;;;-146.96;75.32
39105;BME280;46464;51.154;13.812;2023-04-27T00:35:12;52564.25;;;-146.96;76.10
39105;BME280;46464;51.154;13.812;2023-04-27T00:37:38;52497.13;;;-146.96;75.98
39105;BME280;46464;51.154;13.812;2023-04-27T00:40:05;52527.63;;;-146.96;75.59
39105;BME280;46464;51.154;13.812;2023-04-27T00:42:34;52564.25;;;-146.96;75.94
39105;BME280;46464;51.154;13.812;2023-04-27T00:45:01;52476.75;;;-146.96;75.89
39105;BME280;46464;51.154;13.812;2023-04-27T00:47:28;52529.66;;;-146.96;75.85
39105;BME280;46464;51.154;13.812;2023-04-27T00:49:55;52554.09;;;-146.96;75.80
39105;BME280;46464;51.154;13.812;2023-04-27T00:52:22;52513.41;;;-146.96;75.99
39105;BME280;46464;51.154;13.812;2023-04-27T00:54:50;52529.66;;;-146.96;75.93
39105;BME280;46464;51.154;13.812;2023-04-27T00:57:17;52486.94;;;-146.96;76.09
39105;BME280;46464;51.154;13.812;2023-04-27T00:59:43;52517.47;;;-146.96;76.52
39105;BME280;46464;51.154;13.812;2023-04-27T01:02:10;52543.91;;;-146.96;76.43
39105;BME280;46464;51.154;13.812;2023-04-27T01:04:37;52533.75;;;-146.96;76.45
39105;BME280;46464;51.154;13.812;2023-04-27T01:07:03;52531.72;;;-146.96;76.78
39105;BME280;46464;51.154;13.812;2023-04-27T01:09:30;52521.53;;;-146.96;76.85
39105;BME280;46464;51.154;13.812;2023-04-27T01:11:57;52541.88;;;-146.96;77.05
39105;BME280;46464;51.154;13.812;2023-04-27T01:14:23;52537.81;;;-146.96;77.01
39105;BME280;46464;51.154;13.812;2023-04-27T01:16:50;52533.75;;;-146.96;77.26
39105;BME280;46464;51.154;13.812;2023-04-27T01:19:17;52566.31;;;-146.96;77.21
39105;BME280;46464;51.154;13.812;2023-04-27T01:21:44;52535.78;;;-146.96;77.14
39105;BME280;46464;51.154;13.812;2023-04-27T01:24:10;52541.88;;;-146.96;77.09
39105;BME280;46464;51.154;13.812;2023-04-27T01:26:36;52547.97;;;-146.96;77.15
39105;BME280;46464;51.154;13.812;2023-04-27T01:29:03;52552.06;;;-146.96;77.02
39105;BME280;46464;51.154;13.812;2023-04-27T01:31:29;52513.41;;;-146.96;77.10
39105;BME280;46464;51.154;13.812;2023-04-27T01:33:56;52521.53;;;-146.96;77.06
39105;BME280;46464;51.154;13.812;2023-04-27T01:36:22;52550.03;;;-146.96;77.01
39105;BME280;46464;51.154;13.812;2023-04-27T01:38:49;52517.47;;;-146.96;76.82
39105;BME280;46464;51.154;13.812;2023-04-27T01:41:16;52582.56;;;-146.96;76.87
39105;BME280;46464;51.154;13.812;2023-04-27T01:43:43;52501.19;;;-146.96;76.93
39105;BME280;46464;51.154;13.812;2023-04-27T01:46:11;52543.91;;;-146.96;77.01
39105;BME280;46464;51.154;13.812;2023-04-27T01:48:39;52543.91;;;-146.96;77.07
39105;BME280;46464;51.154;13.812;2023-04-27T01:51:05;52554.09;;;-146.96;77.41
39105;BME280;46464;51.154;13.812;2023-04-27T01:53:32;52562.22;;;-146.96;77.51
39105;BME280;46464;51.154;13.812;2023-04-27T01:55:59;52509.31;;;-146.96;77.43
39105;BME280;46464;51.154;13.812;2023-04-27T01:58:26;52580.53;;;-146.96;77.64
39105;BME280;46464;51.154;13.812;2023-04-27T02:00:52;52525.59;;;-146.96;77.54
39105;BME280;46464;51.154;13.812;2023-04-27T02:03:19;52576.47;;;-146.96;77.57
39105;BME280;46464;51.154;13.812;2023-04-27T02:05:45;52574.44;;;-146.96;77.36
39105;BME280;46464;51.154;13.812;2023-04-27T02:08:13;52547.97;;;-146.96;77.47
39105;BME280;46464;51.154;13.812;2023-04-27T02:10:40;52556.13;;;-146.96;77.33
39105;BME280;46464;51.154;13.812;2023-04-27T02:13:06;52566.31;;;-146.96;77.47
39105;BME280;46464;51.154;13.812;2023-04-27T02:15:33;52541.88;;;-146.96;77.63
39105;BME280;46464;51.154;13.812;2023-04-27T02:18:01;52533.75;;;-146.96;77.84
39105;BME280;46464;51.154;13.812;2023-04-27T02:20:29;52558.16;;;-146.96;77.42
39105;BME280;46464;51.154;13.812;2023-04-27T02:22:56;52554.09;;;-146.96;77.52
39105;BME280;46464;51.154;13.812;2023-04-27T02:25:23;52556.13;;;-146.96;77.47
39105;BME280;46464;51.154;13.812;2023-04-27T02:27:49;52539.84;;;-146.96;77.87
39105;BME280;46464;51.154;13.812;2023-04-27T02:30:16;52535.78;;;-146.96;77.88
39105;BME280;46464;51.154;13.812;2023-04-27T02:32:43;52527.63;;;-146.96;77.43
39105;BME280;46464;51.154;13.812;2023-04-27T02:35:10;52543.91;;;-146.96;77.40
39105;BME280;46464;51.154;13.812;2023-04-27T02:37:36;52547.97;;;-146.96;77.78
39105;BME280;46464;51.154;13.812;2023-04-27T02:40:03;52564.25;;;-146.96;77.76
39105;BME280;46464;51.154;13.812;2023-04-27T02:42:32;52535.78;;;-146.96;78.73
39105;BME280;46464;51.154;13.812;2023-04-27T02:44:59;52550.03;;;-146.96;78.75
39105;BME280;46464;51.154;13.812;2023-04-27T02:47:25;52560.19;;;-146.96;78.97
39105;BME280;46464;51.154;13.812;2023-04-27T02:49:52;52509.31;;;-146.96;78.81
39105;BME280;46464;51.154;13.812;2023-04-27T02:52:18;52515.44;;;-146.96;79.00
39105;BME280;46464;51.154;13.812;2023-04-27T02:54:45;52543.91;;;-146.96;78.55
39105;BME280;46464;51.154;13.812;2023-04-27T02:57:11;52580.53;;;-146.96;78.89
39105;BME280;46464;51.154;13.812;2023-04-27T02:59:37;52584.63;;;-146.96;78.77
39105;BME280;46464;51.154;13.812;2023-04-27T03:02:04;52566.31;;;-146.96;78.80
39105;BME280;46464;51.154;13.812;2023-04-27T03:04:31;52568.34;;;-146.96;78.84
39105;BME280;46464;51.154;13.812;2023-04-27T03:06:57;52554.09;;;-146.96;78.69
39105;BME280;46464;51.154;13.812;2023-04-27T03:09:24;52576.47;;;-146.96;79.50
39105;BME280;46464;51.154;13.812;2023-04-27T03:11:50;52543.91;;;-146.96;80.21
39105;BME280;46464;51.154;13.812;2023-04-27T03:14:16;52552.06;;;-146.96;79.81
39105;BME280;46464;51.154;13.812;2023-04-27T03:16:43;52584.63;;;-146.96;80.18
39105;BME280;46464;51.154;13.812;2023-04-27T03:19:09;52566.31;;;-146.96;80.51
39105;BME280;46464;51.154;13.812;2023-04-27T03:21:36;52578.50;;;-146.96;80.55
39105;BME280;46464;51.154;13.812;2023-04-27T03:24:03;52568.34;;;-146.96;80.93
39105;BME280;46464;51.154;13.812;2023-04-27T03:26:30;52560.19;;;-146.96;81.43
39105;BME280;46464;51.154;13.812;2023-04-27T03:28:57;52560.19;;;-146.96;81.81
39105;BME280;46464;51.154;13.812;2023-04-27T03:31:23;52584.63;;;-146.96;81.40
39105;BME280;46464;51.154;13.812;2023-04-27T03:33:50;52598.84;;;-146.96;81.49
39105;BME280;46464;51.154;13.812;2023-04-27T03:36:16;52547.97;;;-146.96;81.62
39105;BME280;46464;51.154;13.812;2023-04-27T03:38:43;52582.56;;;-146.96;81.75
39105;BME280;46464;51.154;13.812;2023-04-27T03:41:09;52558.16;;;-146.96;82.05
39105;BME280;46464;51.154;13.812;2023-04-27T03:43:36;52570.38;;;-146.96;82.19
39105;BME280;46464;51.154;13.812;2023-04-27T03:46:03;52556.13;;;-146.96;82.13
39105;BME280;46464;51.154;13.812;2023-04-27T03:48:29;52584.63;;;-146.96;82.21
39105;BME280;46464;51.154;13.812;2023-04-27T03:50:56;52547.97;;;-146.96;82.19
39105;BME280;46464;51.154;13.812;2023-04-27T03:53:22;52554.09;;;-146.96;82.38
39105;BME280;46464;51.154;13.812;2023-04-27T03:55:49;52558.16;;;-146.96;82.53
39105;BME280;46464;51.154;13.812;2023-04-27T03:58:15;52566.31;;;-146.96;82.88
39105;BME280;46464;51.154;13.812;2023-04-27T04:00:42;52543.91;;;-146.96;82.33
39105;BME280;46464;51.154;13.812;2023-04-27T04:03:09;52562.22;;;-146.96;82.74
39105;BME280;46464;51.154;13.812;2023-04-27T04:05:36;52566.31;;;-146.96;82.96
39105;BME280;46464;51.154;13.812;2023-04-27T04:08:02;52554.09;;;-146.96;82.78
39105;BME280;46464;51.154;13.812;2023-04-27T04:10:29;52580.53;;;-146.96;83.20
39105;BME280;46464;51.154;13.812;2023-04-27T04:12:55;52550.03;;;-146.96;83.34
39105;BME280;46464;51.154;13.812;2023-04-27T04:15:21;52527.63;;;-146.96;82.90
39105;BME280;46464;51.154;13.812;2023-04-27T04:17:48;52582.56;;;-146.96;82.72
39105;BME280;46464;51.154;13.812;2023-04-27T04:20:14;52533.75;;;-146.96;82.77
39105;BME280;46464;51.154;13.812;2023-04-27T04:22:41;52609.03;;;-146.96;82.47
39105;BME280;46464;51.154;13.812;2023-04-27T04:25:08;52570.38;;;-146.96;82.35
39105;BME280;46464;51.154;13.812;2023-04-27T04:27:35;52550.03;;;-146.96;81.96
39105;BME280;46464;51.154;13.812;2023-04-27T04:30:01;52543.91;;;-146.96;81.85
39105;BME280;46464;51.154;13.812;2023-04-27T04:32:33;52556.13;;;-146.96;81.82
39105;BME280;46464;51.154;13.812;2023-04-27T04:35:04;52523.56;;;-146.96;81.62
39105;BME280;46464;51.154;13.812;2023-04-27T04:37:32;52533.75;;;-146.96;81.71
39105;BME280;46464;51.154;13.812;2023-04-27T04:39:59;52564.25;;;-146.96;81.72
39105;BME280;46464;51.154;13.812;2023-04-27T04:42:28;52566.31;;;-146.96;81.62
39105;BME280;46464;51.154;13.812;2023-04-27T04:44:55;52537.81;;;-146.96;81.55
39105;BME280;46464;51.154;13.812;2023-04-27T04:47:22;52525.59;;;-146.96;81.81
39105;BME280;46464;51.154;13.812;2023-04-27T04:49:48;52547.97;;;-146.96;81.49
39105;BME280;46464;51.154;13.812;2023-04-27T04:52:15;52592.75;;;-146.96;81.59
39105;BME280;46464;51.154;13.812;2023-04-27T04:54:41;52535.78;;;-146.96;81.78
39105;BME280;46464;51.154;13.812;2023-04-27T04:57:08;52545.94;;;-146.96;81.85
39105;BME280;46464;51.154;13.812;2023-04-27T04:59:34;52513.41;;;-146.96;81.69
39105;BME280;46464;51.154;13.812;2023-04-27T05:02:01;52539.84;;;-146.96;81.59
39105;BME280;46464;51.154;13.812;2023-04-27T05:04:27;52547.97;;;-146.96;81.21
39105;BME280;46464;51.154;13.812;2023-04-27T05:06:54;52523.56;;;-146.96;80.52
39105;BME280;46464;51.154;13.812;2023-04-27T05:09:21;52517.47;;;-146.96;80.30
39105;BME280;46464;51.154;13.812;2023-04-27T05:11:47;52537.81;;;-146.96;79.46
39105;BME280;46464;51.154;13.812;2023-04-27T05:14:13;52486.94;;;-146.96;78.26
39105;BME280;46464;51.154;13.812;2023-04-27T05:16:40;52503.22;;;-146.96;79.00
39105;BME280;46464;51.154;13.812;2023-04-27T05:19:06;52495.06;;;-146.96;78.59
39105;BME280;46464;51.154;13.812;2023-04-27T05:21:33;52533.75;;;-146.96;78.50
39105;BME280;46464;51.154;13.812;2023-04-27T05:24:00;52543.91;;;-146.96;78.64
39105;BME280;46464;51.154;13.812;2023-04-27T05:26:26;52501.19;;;-146.96;78.64
39105;BME280;46464;51.154;13.812;2023-04-27T05:28:52;52493.03;;;-146.96;78.22
39105;BME280;46464;51.154;13.812;2023-04-27T05:31:19;52509.31;;;-146.96;78.12
39105;BME280;46464;51.154;13.812;2023-04-27T05:33:45;52509.31;;;-146.96;78.18
39105;BME280;46464;51.154;13.812;2023-04-27T05:36:12;52484.91;;;-146.96;78.55
39105;BME280;46464;51.154;13.812;2023-04-27T05:38:38;52484.91;;;-146.96;78.81
39105;BME280;46464;51.154;13.812;2023-04-27T05:41:05;52515.44;;;-146.96;78.47
39105;BME280;46464;51.154;13.812;2023-04-27T05:43:32;52484.91;;;-146.96;77.88
39105;BME280;46464;51.154;13.812;2023-04-27T05:46:00;52521.53;;;-146.96;77.24
39105;BME280;46464;51.154;13.812;2023-04-27T05:48:26;52452.34;;;-146.96;75.16
39105;BME280;46464;51.154;13.812;2023-04-27T05:51:00;52491.00;;;-146.96;73.34
39105;BME280;46464;51.154;13.812;2023-04-27T05:53:27;52476.75;;;-146.96;73.78
39105;BME280;46464;51.154;13.812;2023-04-27T05:55:54;52464.56;;;-146.96;73.81
39105;BME280;46464;51.154;13.812;2023-04-27T05:58:21;52468.63;;;-146.96;72.07
39105;BME280;46464;51.154;13.812;2023-04-27T06:00:47;52429.97;;;-146.96;72.31
39105;BME280;46464;51.154;13.812;2023-04-27T06:03:13;52419.78;;;-146.96;70.96
39105;BME280;46464;51.154;13.812;2023-04-27T06:05:40;52432.00;;;-146.96;69.80
39105;BME280;46464;51.154;13.812;2023-04-27T06:08:07;52450.31;;;-146.96;70.92
39105;BME280;46464;51.154;13.812;2023-04-27T06:10:33;52434.03;;;-146.96;69.28
39105;BME280;46464;51.154;13.812;2023-04-27T06:13:00;52399.44;;;-146.96;67.82
39105;BME280;46464;51.154;13.812;2023-04-27T06:15:27;52393.34;;;-146.96;67.56
39105;BME280;46464;51.154;13.812;2023-04-27T06:17:53;52401.47;;;-146.96;68.89
39105;BME280;46464;51.154;13.812;2023-04-27T06:20:20;52409.63;;;-146.96;66.00
39105;BME280;46464;51.154;13.812;2023-04-27T06:22:46;52409.63;;;-146.96;68.00
39105;BME280;46464;51.154;13.812;2023-04-27T06:25:13;52383.16;;;-146.96;68.56
39105;BME280;46464;51.154;13.812;2023-04-27T06:27:39;52427.94;;;-146.96;67.88
39105;BME280;46464;51.154;13.812;2023-04-27T06:30:07;52421.81;;;-146.96;67.92
39105;BME280;46464;51.154;13.812;2023-04-27T06:32:35;52360.78;;;-146.96;66.30
39105;BME280;46464;51.154;13.812;2023-04-27T06:35:01;52354.69;;;-146.96;63.82
39105;BME280;46464;51.154;13.812;2023-04-27T06:37:28;52366.88;;;-146.96;60.18
39105;BME280;46464;51.154;13.812;2023-04-27T06:39:55;52356.72;;;-146.96;60.48
39105;BME280;46464;51.154;13.812;2023-04-27T06:42:21;52344.50;;;-146.96;58.90
39105;BME280;46464;51.154;13.812;2023-04-27T06:44:48;52393.34;;;-146.96;58.64
39105;BME280;46464;51.154;13.812;2023-04-27T06:47:14;52379.09;;;-146.96;58.10
39105;BME280;46464;51.154;13.812;2023-04-27T06:49:40;52346.53;;;-146.96;58.96
39105;BME280;46464;51.154;13.812;2023-04-27T06:52:07;52395.38;;;-146.96;59.05
39105;BME280;46464;51.154;13.812;2023-04-27T06:54:33;52350.59;;;-146.96;61.03
39105;BME280;46464;51.154;13.812;2023-04-27T06:57:00;52373.00;;;-146.96;59.78
39105;BME280;46464;51.154;13.812;2023-04-27T06:59:26;52338.41;;;-146.96;59.81
39105;BME280;46464;51.154;13.812;2023-04-27T07:01:53;52362.81;;;-146.96;57.78
39105;BME280;46464;51.154;13.812;2023-04-27T07:04:19;52368.94;;;-146.96;56.06
39105;BME280;46464;51.154;13.812;2023-04-27T07:06:46;52293.63;;;-146.96;55.72
39105;BME280;46464;51.154;13.812;2023-04-27T07:09:12;52322.13;;;-146.96;54.71
39105;BME280;46464;51.154;13.812;2023-04-27T07:11:52;52305.84;;;-146.96;54.78
39105;BME280;46464;51.154;13.812;2023-04-27T07:14:18;52305.84;;;-146.96;55.02
39105;BME280;46464;51.154;13.812;2023-04-27T07:16:45;52299.75;;;-146.96;53.47
39105;BME280;46464;51.154;13.812;2023-04-27T07:19:12;52273.28;;;-146.96;53.18
39105;BME280;46464;51.154;13.812;2023-04-27T07:21:39;52291.59;;;-146.96;54.05
39105;BME280;46464;51.154;13.812;2023-04-27T07:24:06;52267.19;;;-146.96;53.26
39105;BME280;46464;51.154;13.812;2023-04-27T07:26:32;52246.84;;;-146.96;51.42
39105;BME280;46464;51.154;13.812;2023-04-27T07:28:59;52287.53;;;-146.96;51.60
39105;BME280;46464;51.154;13.812;2023-04-27T07:31:31;52232.59;;;-146.96;53.34
39105;BME280;46464;51.154;13.812;2023-04-27T07:33:58;52224.47;;;-146.96;53.44
39105;BME280;46464;51.154;13.812;2023-04-27T07:36:25;52214.28;;;-146.96;54.22
39105;BME280;46464;51.154;13.812;2023-04-27T07:38:52;52275.31;;;-146.96;51.68
39105;BME280;46464;51.154;13.812;2023-04-27T07:41:19;52228.53;;;-146.96;49.42
39105;BME280;46464;51.154;13.812;2023-04-27T07:43:45;52216.31;;;-146.96;50.44
39105;BME280;46464;51.154;13.812;2023-04-27T07:46:13;52248.88;;;-146.96;50.27
39105;BME280;46464;51.154;13.812;2023-04-27T07:48:39;52236.66;;;-146.96;52.11
39105;BME280;46464;51.154;13.812;2023-04-27T07:51:05;52281.44;;;-146.96;51.22
39105;BME280;46464;51.154;13.812;2023-04-27T07:53:33;52234.63;;;-146.96;51.54
39105;BME280;46464;51.154;13.812;2023-04-27T07:56:00;52261.09;;;-146.96;51.26
39105;BME280;46464;51.154;13.812;2023-04-27T07:58:26;52224.47;;;-146.96;51.38
39105;BME280;46464;51.154;13.812;2023-04-27T08:00:53;52202.06;;;-146.96;51.83
39105;BME280;46464;51.154;13.812;2023-04-27T08:03:19;52234.63;;;-146.96;51.69
39105;BME280;46464;51.154;13.812;2023-04-27T08:05:46;52242.78;;;-146.96;54.37
39105;BME280;46464;51.154;13.812;2023-04-27T08:08:12;52263.13;;;-146.96;50.87
39105;BME280;46464;51.154;13.812;2023-04-27T08:10:39;52232.59;;;-146.96;52.09
39105;BME280;46464;51.154;13.812;2023-04-27T08:13:08;52257.00;;;-146.96;52.06
39105;BME280;46464;51.154;13.812;2023-04-27T08:15:35;52226.50;;;-146.96;51.06
39105;BME280;46464;51.154;13.812;2023-04-27T08:18:01;52244.81;;;-146.96;51.21
39105;BME280;46464;51.154;13.812;2023-04-27T08:20:28;52232.59;;;-146.96;50.62
39105;BME280;46464;51.154;13.812;2023-04-27T08:22:54;52259.03;;;-146.96;50.70
39105;BME280;46464;51.154;13.812;2023-04-27T08:25:21;52238.69;;;-146.96;51.52
39105;BME280;46464;51.154;13.812;2023-04-27T08:27:48;52232.59;;;-146.96;50.17
39105;BME280;46464;51.154;13.812;2023-04-27T08:30:14;52216.31;;;-146.96;49.64
39105;BME280;46464;51.154;13.812;2023-04-27T08:32:41;52218.34;;;-146.96;49.92
39105;BME280;46464;51.154;13.812;2023-04-27T08:35:08;52179.69;;;-146.96;52.23
39105;BME280;46464;51.154;13.812;2023-04-27T08:37:34;52259.03;;;-146.96;49.64
39105;BME280;46464;51.154;13.812;2023-04-27T08:40:03;52224.47;;;-146.96;50.67
39105;BME280;46464;51.154;13.812;2023-04-27T08:42:30;52198.00;;;-146.96;47.76
39105;BME280;46464;51.154;13.812;2023-04-27T08:44:56;52208.19;;;-146.96;47.42
39105;BME280;46464;51.154;13.812;2023-04-27T08:47:22;52224.47;;;-146.96;49.95
39105;BME280;46464;51.154;13.812;2023-04-27T08:50:06;52208.19;;;-146.96;47.50
39105;BME280;46464;51.154;13.812;2023-04-27T08:52:33;52232.59;;;-146.96;48.25
39105;BME280;46464;51.154;13.812;2023-04-27T08:54:59;52191.91;;;-146.96;48.58
39105;BME280;46464;51.154;13.812;2023-04-27T08:57:26;52181.72;;;-146.96;48.13
39105;BME280;46464;51.154;13.812;2023-04-27T08:59:58;52191.91;;;-146.96;47.55
39105;BME280;46464;51.154;13.812;2023-04-27T09:02:26;52189.88;;;-146.96;48.99
39105;BME280;46464;51.154;13.812;2023-04-27T09:04:54;52234.63;;;-146.96;49.15
39105;BME280;46464;51.154;13.812;2023-04-27T09:07:22;52161.38;;;-146.96;48.88
39105;BME280;46464;51.154;13.812;2023-04-27T09:09:48;52187.84;;;-146.96;48.45
39105;BME280;46464;51.154;13.812;2023-04-27T09:12:19;52204.13;;;-146.96;48.55
39105;BME280;46464;51.154;13.812;2023-04-27T09:14:59;52214.28;;;-146.96;49.07
39105;BME280;46464;51.154;13.812;2023-04-27T09:17:26;52198.00;;;-146.96;48.92
39105;BME280;46464;51.154;13.812;2023-04-27T09:20:05;52248.88;;;-146.96;48.02
39105;BME280;46464;51.154;13.812;2023-04-27T09:22:45;52198.00;;;-146.96;47.59
39105;BME280;46464;51.154;13.812;2023-04-27T09:25:25;52216.31;;;-146.96;48.66
39105;BME280;46464;51.154;13.812;2023-04-27T09:27:52;52226.50;;;-146.96;49.30
39105;BME280;46464;51.154;13.812;2023-04-27T09:30:19;52214.28;;;-146.96;47.17
39105;BME280;46464;51.154;13.812;2023-04-27T09:33:20;52218.34;;;-146.96;48.12
39105;BME280;46464;51.154;13.812;2023-04-27T09:35:38;52171.56;;;-146.96;49.77
39105;BME280;46464;51.154;13.812;2023-04-27T09:38:07;52232.59;;;-146.96;46.16
39105;BME280;46464;51.154;13.812;2023-04-27T09:40:33;52177.66;;;-146.96;45.93
39105;BME280;46464;51.154;13.812;2023-04-27T09:43:02;52198.00;;;-146.96;44.50
39105;BME280;46464;51.154;13.812;2023-04-27T09:45:28;52206.16;;;-146.96;44.90
39105;BME280;46464;51.154;13.812;2023-04-27T09:47:55;52181.72;;;-146.96;48.01
39105;BME280;46464;51.154;13.812;2023-04-27T09:50:21;52202.06;;;-146.96;41.63
39105;BME280;46464;51.154;13.812;2023-04-27T09:52:48;52191.91;;;-146.96;42.55
39105;BME280;46464;51.154;13.812;2023-04-27T09:55:15;52208.19;;;-146.96;41.27
39105;BME280;46464;51.154;13.812;2023-04-27T09:57:57;52204.13;;;-146.96;41.33
39105;BME280;46464;51.154;13.812;2023-04-27T10:05:39;52173.59;;;-146.96;44.12
39105;BME280;46464;51.154;13.812;2023-04-27T10:08:07;52134.94;;;-146.96;45.92
39105;BME280;46464;51.154;13.812;2023-04-27T10:10:42;52151.22;;;-146.96;43.53
39105;BME280;46464;51.154;13.812;2023-04-27T10:13:18;52141.03;;;-146.96;41.78
39105;BME280;46464;51.154;13.812;2023-04-27T10:15:45;52175.63;;;-146.96;41.32
39105;BME280;46464;51.154;13.812;2023-04-27T10:18:11;52165.44;;;-146.96;42.97
39105;BME280;46464;51.154;13.812;2023-04-27T10:20:38;52141.03;;;-146.96;43.01
39105;BME280;46464;51.154;13.812;2023-04-27T10:23:05;52141.03;;;-146.96;40.83
39105;BME280;46464;51.154;13.812;2023-04-27T10:25:38;52120.69;;;-146.96;42.61
39105;BME280;46464;51.154;13.812;2023-04-27T10:28:05;52116.63;;;-146.96;41.23
39105;BME280;46464;51.154;13.812;2023-04-27T10:30:38;52114.59;;;-146.96;42.34
39105;BME280;46464;51.154;13.812;2023-04-27T10:33:05;52100.34;;;-146.96;42.12
39105;BME280;46464;51.154;13.812;2023-04-27T10:35:34;52120.69;;;-146.96;42.06
39105;BME280;46464;51.154;13.812;2023-04-27T10:38:08;52159.34;;;-146.96;41.05
39105;BME280;46464;51.154;13.812;2023-04-27T10:40:36;52151.22;;;-146.96;41.24
39105;BME280;46464;51.154;13.812;2023-04-27T10:45:35;52141.03;;;-146.96;43.50
39105;BME280;46464;51.154;13.812;2023-04-27T10:48:01;52155.28;;;-146.96;41.54
39105;BME280;46464;51.154;13.812;2023-04-27T10:50:28;52130.88;;;-146.96;41.52
39105;BME280;46464;51.154;13.812;2023-04-27T10:52:58;52149.19;;;-146.96;41.35
39105;BME280;46464;51.154;13.812;2023-04-27T10:55:26;52159.34;;;-146.96;42.61
39105;BME280;46464;51.154;13.812;2023-04-27T10:57:53;52169.53;;;-146.96;43.10
39105;BME280;46464;51.154;13.812;2023-04-27T11:00:35;52173.59;;;-146.96;43.94
39105;BME280;46464;51.154;13.812;2023-04-27T11:03:12;52179.69;;;-146.96;44.91
39105;BME280;46464;51.154;13.812;2023-04-27T11:05:40;52165.44;;;-146.96;43.64
39105;BME280;46464;51.154;13.812;2023-04-27T11:08:08;52155.28;;;-146.96;43.01
39105;BME280;46464;51.154;13.812;2023-04-27T11:10:39;52169.53;;;-146.96;43.27
39105;BME280;46464;51.154;13.812;2023-04-27T11:13:07;52175.63;;;-146.96;41.89
39105;BME280;46464;51.154;13.812;2023-04-27T11:18:09;52149.19;;;-146.96;41.42
39105;BME280;46464;51.154;13.812;2023-04-27T11:20:35;52088.13;;;-146.96;41.90
39105;BME280;46464;51.154;13.812;2023-04-27T11:23:02;52118.66;;;-146.96;40.39
39105;BME280;46464;51.154;13.812;2023-04-27T11:25:28;52090.16;;;-146.96;38.35
39105;BME280;46464;51.154;13.812;2023-04-27T11:27:55;52130.88;;;-146.96;39.07
39105;BME280;46464;51.154;13.812;2023-04-27T11:30:21;52143.06;;;-146.96;39.21
39105;BME280;46464;51.154;13.812;2023-04-27T11:32:48;52118.66;;;-146.96;40.42
39105;BME280;46464;51.154;13.812;2023-04-27T11:35:16;52124.75;;;-146.96;43.61
39105;BME280;46464;51.154;13.812;2023-04-27T11:37:43;52167.50;;;-146.96;44.13
39105;BME280;46464;51.154;13.812;2023-04-27T11:40:12;52149.19;;;-146.96;44.61
39105;BME280;46464;51.154;13.812;2023-04-27T11:42:39;52139.00;;;-146.96;44.76
39105;BME280;46464;51.154;13.812;2023-04-27T11:45:10;52165.44;;;-146.96;45.19
39105;BME280;46464;51.154;13.812;2023-04-27T11:47:36;52167.50;;;-146.96;44.79
39105;BME280;46464;51.154;13.812;2023-04-27T11:50:04;52141.03;;;-146.96;43.66
39105;BME280;46464;51.154;13.812;2023-04-27T11:52:32;52112.56;;;-146.96;43.87
39105;BME280;46464;51.154;13.812;2023-04-27T11:54:59;52098.31;;;-146.96;42.36
39105;BME280;46464;51.154;13.812;2023-04-27T11:57:30;52143.06;;;-146.96;43.44
39105;BME280;46464;51.154;13.812;2023-04-27T11:59:58;52165.44;;;-146.96;41.43
39105;BME280;46464;51.154;13.812;2023-04-27T12:02:26;52143.06;;;-146.96;42.39
39105;BME280;46464;51.154;13.812;2023-04-27T12:04:53;52130.88;;;-146.96;43.86
39105;BME280;46464;51.154;13.812;2023-04-27T12:07:19;52124.75;;;-146.96;44.19
39105;BME280;46464;51.154;13.812;2023-04-27T12:09:46;52114.59;;;-146.96;42.65
39105;BME280;46464;51.154;13.812;2023-04-27T12:12:12;52086.09;;;-146.96;44.37
39105;BME280;46464;51.154;13.812;2023-04-27T12:14:39;52049.47;;;-146.96;42.99
39105;BME280;46464;51.154;13.812;2023-04-27T12:17:06;52104.41;;;-146.96;42.95
39105;BME280;46464;51.154;13.812;2023-04-27T12:19:33;52086.09;;;-146.96;44.13
39105;BME280;46464;51.154;13.812;2023-04-27T12:22:00;52059.66;;;-146.96;41.73
39105;BME280;46464;51.154;13.812;2023-04-27T12:24:26;52080.00;;;-146.96;41.65
39105;BME280;46464;51.154;13.812;2023-04-27T12:26:53;52075.94;;;-146.96;40.52
39105;BME280;46464;51.154;13.812;2023-04-27T12:29:19;52094.25;;;-146.96;42.52
39105;BME280;46464;51.154;13.812;2023-04-27T12:31:45;52118.66;;;-146.96;40.65
39105;BME280;46464;51.154;13.812;2023-04-27T12:34:12;52073.91;;;-146.96;42.29
39105;BME280;46464;51.154;13.812;2023-04-27T12:36:39;52084.06;;;-146.96;41.80
39105;BME280;46464;51.154;13.812;2023-04-27T12:39:15;52073.91;;;-146.96;41.85
39105;BME280;46464;51.154;13.812;2023-04-27T12:41:42;52067.78;;;-146.96;42.43